Time;durP1;ratioP1;P1;durP2;ratioP2;P2;SDS_P1;SDS_P2;PMS_P1;PMS_P2;Temp;Humidity;BMP_temperature;BMP_pressure;BME280_temperature;BME280_humidity;BME280_pressure;Samples;Min_cycle;Max_cycle;Signal;HPM_P1;HPM_P2
2024/03/26 00:02:22;;;;;;;6.50;4.15;;;2.40;99.90;;;;;;5074408;28;20044;-81
2024/03/26 00:05:09;;;;;;;5.38;3.58;;;2.50;99.90;;;;;;5074418;28;20036;-82
2024/03/26 00:07:55;;;;;;;7.10;4.15;;;2.50;99.90;;;;;;5074590;28;20051;-81
2024/03/26 00:10:41;;;;;;;9.32;4.53;;;2.60;99.90;;;;;;5057539;28;20050;-80
2024/03/26 00:13:28;;;;;;;6.90;4.05;;;2.70;99.90;;;;;;5073755;28;20044;-81
2024/03/26 00:16:14;;;;;;;10.40;4.32;;;2.70;99.90;;;;;;5072376;28;20056;-82
2024/03/26 00:19:00;;;;;;;6.35;4.00;;;2.80;99.90;;;;;;5061632;28;20055;-81
2024/03/26 00:21:47;;;;;;;6.15;3.92;;;2.70;99.90;;;;;;5073797;28;20501;-80
2024/03/26 00:24:33;;;;;;;6.75;4.38;;;2.60;99.90;;;;;;5077361;28;20040;-82
2024/03/26 00:27:20;;;;;;;6.13;3.33;;;2.60;99.90;;;;;;5081116;28;20036;-81
2024/03/26 00:30:06;;;;;;;4.45;3.30;;;2.50;99.90;;;;;;5073081;28;20051;-81
2024/03/26 00:32:53;;;;;;;7.07;3.80;;;2.40;99.90;;;;;;5074055;28;20058;-81
2024/03/26 00:35:39;;;;;;;10.00;3.80;;;2.40;99.90;;;;;;5073884;28;20534;-81
2024/03/26 00:38:25;;;;;;;8.40;3.75;;;2.30;99.90;;;;;;5073983;28;20040;-81
2024/03/26 00:41:12;;;;;;;7.50;3.58;;;2.30;99.90;;;;;;5073295;28;20048;-82
2024/03/26 00:44:00;;;;;;;10.27;4.38;;;2.60;99.90;;;;;;5074132;28;20040;-82
2024/03/26 00:46:47;;;;;;;6.93;3.78;;;2.80;99.90;;;;;;5060905;28;20040;-83
2024/03/26 00:49:33;;;;;;;8.60;3.38;;;2.90;99.90;;;;;;5062647;28;20048;-82
2024/03/26 00:52:19;;;;;;;7.57;3.25;;;2.90;99.90;;;;;;5079230;28;20052;-83
2024/03/26 00:55:06;;;;;;;6.40;4.20;;;2.80;99.90;;;;;;5078702;28;20036;-83
2024/03/26 00:57:53;;;;;;;8.65;4.47;;;2.70;99.90;;;;;;5104614;28;20051;-81
2024/03/26 01:00:40;;;;;;;9.32;4.53;;;2.50;99.90;;;;;;5092878;28;20034;-80
2024/03/26 01:03:26;;;;;;;8.95;4.80;;;2.20;99.90;;;;;;5104678;28;20028;-82
2024/03/26 01:06:13;;;;;;;10.55;4.93;;;2.10;99.90;;;;;;5100209;28;20171;-80
2024/03/26 01:08:59;;;;;;;9.85;4.65;;;2.00;99.90;;;;;;5082335;28;20504;-80
2024/03/26 01:11:48;;;;;;;9.32;4.75;;;2.00;99.90;;;;;;5076944;28;20123;-83
2024/03/26 01:14:35;;;;;;;8.32;3.92;;;1.90;99.90;;;;;;5077053;28;20077;-82
2024/03/26 01:17:21;;;;;;;9.77;4.18;;;1.80;99.90;;;;;;5077336;28;20040;-83
2024/03/26 01:20:07;;;;;;;7.75;4.47;;;1.70;99.90;;;;;;5077180;28;20040;-83
2024/03/26 01:22:54;;;;;;;8.50;4.10;;;1.70;99.90;;;;;;5076647;28;20203;-82
2024/03/26 01:25:40;;;;;;;10.13;4.03;;;1.60;99.90;;;;;;5077692;28;20044;-81
2024/03/26 01:28:26;;;;;;;7.30;4.22;;;1.50;99.90;;;;;;5062526;28;20584;-81
2024/03/26 01:31:13;;;;;;;6.80;4.22;;;1.40;99.90;;;;;;5075250;28;20044;-80
2024/03/26 01:33:59;;;;;;;9.93;4.40;;;1.40;99.90;;;;;;5076751;28;20064;-80
2024/03/26 01:36:45;;;;;;;10.80;4.80;;;1.30;99.90;;;;;;5076767;28;20044;-80
2024/03/26 01:39:32;;;;;;;8.18;4.70;;;1.40;99.90;;;;;;5085201;28;20054;-81
2024/03/26 01:42:18;;;;;;;8.32;4.38;;;1.50;99.90;;;;;;5076215;28;20151;-82
2024/03/26 01:45:05;;;;;;;6.47;4.32;;;1.50;99.90;;;;;;5098440;28;20040;-83
2024/03/26 01:47:51;;;;;;;8.65;4.95;;;1.50;99.90;;;;;;5077315;28;20044;-82
2024/03/26 01:50:38;;;;;;;9.60;4.43;;;1.50;99.90;;;;;;5077857;28;20044;-82
2024/03/26 01:53:25;;;;;;;7.88;4.25;;;1.50;99.90;;;;;;5077215;28;20054;-81
2024/03/26 01:56:12;;;;;;;6.18;3.78;;;1.40;99.90;;;;;;5063269;28;20051;-79
2024/03/26 01:59:00;;;;;;;5.90;3.78;;;1.30;99.90;;;;;;5076062;28;20036;-82
2024/03/26 02:01:47;;;;;;;9.23;3.67;;;1.40;99.90;;;;;;5075936;28;20118;-82
2024/03/26 02:04:33;;;;;;;8.82;4.45;;;1.60;99.90;;;;;;5075837;28;20070;-82
2024/03/26 02:07:19;;;;;;;12.68;4.88;;;1.70;99.90;;;;;;5074615;28;20050;-82
2024/03/26 02:10:07;;;;;;;9.73;4.47;;;1.70;99.90;;;;;;5061085;28;20050;-81
2024/03/26 02:12:53;;;;;;;8.93;4.85;;;1.80;99.90;;;;;;5078322;28;20047;-81
2024/03/26 02:15:39;;;;;;;5.95;4.40;;;1.70;99.90;;;;;;5084911;28;20043;-82
2024/03/26 02:18:26;;;;;;;6.75;4.32;;;1.60;99.90;;;;;;5074748;28;20500;-81
2024/03/26 02:21:12;;;;;;;8.52;3.80;;;1.50;99.90;;;;;;5083051;28;20095;-82
2024/03/26 02:23:59;;;;;;;8.18;4.85;;;1.40;99.90;;;;;;5075466;28;20606;-82
2024/03/26 02:26:45;;;;;;;8.80;4.78;;;1.40;99.90;;;;;;5075840;28;20048;-81
2024/03/26 02:29:31;;;;;;;7.60;4.68;;;1.40;99.90;;;;;;5075738;28;20050;-81
2024/03/26 02:32:17;;;;;;;9.75;4.55;;;1.40;1.00;;;;;;5060687;28;20063;-81
2024/03/26 02:35:04;;;;;;;9.32;4.88;;;1.40;1.00;;;;;;5075550;28;20167;-81
2024/03/26 02:37:51;;;;;;;7.70;4.30;;;1.30;1.00;;;;;;5074691;28;20044;-80
2024/03/26 02:40:37;;;;;;;7.97;5.13;;;1.20;1.00;;;;;;5075818;28;20040;-81
2024/03/26 02:43:23;;;;;;;7.70;4.47;;;1.20;1.00;;;;;;5076409;28;20396;-81
2024/03/26 02:46:09;;;;;;;8.65;4.95;;;1.20;1.00;;;;;;5075133;28;20047;-81
2024/03/26 02:48:56;;;;;;;7.38;4.57;;;1.10;1.00;;;;;;5074779;28;20047;-81
2024/03/26 02:51:42;;;;;;;8.63;5.20;;;1.10;1.00;;;;;;5077858;28;20044;-80
2024/03/26 02:54:28;;;;;;;10.85;5.03;;;1.10;1.00;;;;;;5085132;28;20044;-82
2024/03/26 02:57:15;;;;;;;11.13;5.60;;;1.20;1.00;;;;;;5076687;28;20062;-81
2024/03/26 03:00:01;;;;;;;6.57;4.80;;;1.20;1.00;;;;;;5085266;28;20100;-82
2024/03/26 03:02:47;;;;;;;8.05;4.63;;;1.20;1.00;;;;;;5075395;28;20041;-83
2024/03/26 03:05:34;;;;;;;7.30;4.32;;;1.00;1.00;;;;;;5075584;28;20040;-83
2024/03/26 03:08:20;;;;;;;8.57;4.65;;;1.00;1.00;;;;;;5093023;28;20025;-82
2024/03/26 03:11:06;;;;;;;8.27;4.70;;;1.00;1.00;;;;;;5092041;28;20173;-81
2024/03/26 03:13:53;;;;;;;7.32;4.70;;;1.00;1.00;;;;;;5092060;28;20155;-82
2024/03/26 03:16:39;;;;;;;6.68;4.25;;;1.00;1.00;;;;;;5093961;28;20048;-82
2024/03/26 03:19:25;;;;;;;14.13;5.38;;;1.00;1.00;;;;;;5084677;28;20045;-82
2024/03/26 03:22:12;;;;;;;7.13;4.50;;;1.00;1.00;;;;;;5080575;28;20099;-83
2024/03/26 03:24:58;;;;;;;7.30;4.88;;;1.00;1.00;;;;;;5074496;28;20040;-82
2024/03/26 03:27:44;;;;;;;8.48;4.75;;;1.10;1.00;;;;;;5074213;28;20103;-83
2024/03/26 03:30:30;;;;;;;8.80;4.78;;;1.20;1.00;;;;;;5079553;28;20050;-81
2024/03/26 03:33:17;;;;;;;6.65;4.88;;;1.30;1.00;;;;;;5085140;28;20040;-82
2024/03/26 03:36:03;;;;;;;8.93;4.82;;;1.40;1.00;;;;;;5074847;28;20116;-82
2024/03/26 03:38:50;;;;;;;5.93;4.30;;;1.40;1.00;;;;;;5077665;28;20050;-81
2024/03/26 03:41:36;;;;;;;6.03;4.15;;;1.50;1.00;;;;;;5079230;28;20048;-81
2024/03/26 03:44:22;;;;;;;8.20;4.63;;;1.60;1.00;;;;;;5062507;28;20419;-82
2024/03/26 03:47:09;;;;;;;9.07;5.07;;;1.70;1.00;;;;;;5074925;28;20040;-81
2024/03/26 03:49:55;;;;;;;9.85;4.72;;;1.70;1.00;;;;;;5075466;28;20154;-80
2024/03/26 03:52:41;;;;;;;8.55;4.38;;;1.70;1.00;;;;;;5075805;28;20523;-81
2024/03/26 03:55:30;;;;;;;12.02;4.70;;;1.80;1.00;;;;;;5074797;28;20058;-82
2024/03/26 03:58:16;;;;;;;10.52;5.63;;;1.80;1.00;;;;;;5074595;28;20044;-83
2024/03/26 04:01:02;;;;;;;7.28;5.15;;;1.90;1.00;;;;;;5078844;28;20040;-82
2024/03/26 04:03:49;;;;;;;9.05;5.60;;;2.00;1.00;;;;;;5072563;28;20032;-83
2024/03/26 04:06:36;;;;;;;8.07;4.75;;;2.10;1.00;;;;;;5093350;28;20481;-84
2024/03/26 04:09:23;;;;;;;7.55;5.00;;;2.10;1.00;;;;;;5096840;28;20542;-80
2024/03/26 04:12:09;;;;;;;6.05;5.15;;;2.20;1.00;;;;;;5091349;28;20048;-82
2024/03/26 04:14:56;;;;;;;8.90;4.50;;;2.20;1.00;;;;;;5096451;28;20191;-81
2024/03/26 04:17:42;;;;;;;9.93;4.40;;;2.10;1.00;;;;;;5088455;28;20059;-82
2024/03/26 04:20:29;;;;;;;7.47;4.40;;;2.10;1.00;;;;;;5087794;28;20044;-80
2024/03/26 04:23:15;;;;;;;9.95;4.93;;;2.10;1.00;;;;;;5089586;28;20530;-82
2024/03/26 04:26:01;;;;;;;11.25;4.85;;;2.00;1.00;;;;;;5091173;28;20529;-81
2024/03/26 04:28:47;;;;;;;6.88;4.47;;;2.00;1.00;;;;;;5092479;28;20036;-82
2024/03/26 04:31:34;;;;;;;7.85;4.90;;;1.90;1.00;;;;;;5078090;28;20506;-82
2024/03/26 04:34:20;;;;;;;9.48;4.43;;;1.80;1.00;;;;;;5092342;28;20044;-83
2024/03/26 04:37:06;;;;;;;12.57;6.18;;;1.70;1.00;;;;;;5115387;28;20043;-81
2024/03/26 04:39:53;;;;;;;38.60;17.83;;;1.70;1.00;;;;;;5110186;28;20032;-82
2024/03/26 04:42:40;;;;;;;18.95;8.52;;;1.60;1.00;;;;;;5108972;28;20482;-80
2024/03/26 04:45:26;;;;;;;9.52;5.93;;;1.60;1.00;;;;;;5104107;28;20044;-79
2024/03/26 04:48:12;;;;;;;12.57;5.57;;;1.50;1.00;;;;;;5105264;28;20046;-83
2024/03/26 04:50:59;;;;;;;11.95;6.20;;;1.60;16.40;;;;;;5090974;28;20123;-83
2024/03/26 04:53:45;;;;;;;11.63;6.28;;;1.60;36.50;;;;;;5093033;28;20472;-83
2024/03/26 04:56:31;;;;;;;10.13;5.30;;;1.60;69.30;;;;;;5091638;28;20043;-81
2024/03/26 04:59:18;;;;;;;10.60;5.05;;;1.60;99.90;;;;;;5090534;28;20054;-82
2024/03/26 05:02:04;;;;;;;9.48;5.13;;;1.70;99.90;;;;;;5077204;28;20047;-82
2024/03/26 05:04:51;;;;;;;10.02;5.22;;;1.70;99.90;;;;;;5070336;28;20051;-82
2024/03/26 05:07:39;;;;;;;12.40;5.22;;;1.80;99.90;;;;;;5090012;28;20055;-81
2024/03/26 05:10:26;;;;;;;9.25;4.50;;;1.90;99.90;;;;;;5090829;28;20048;-82
2024/03/26 05:13:12;;;;;;;9.35;5.05;;;2.00;99.90;;;;;;5077648;28;20062;-81
2024/03/26 05:15:59;;;;;;;9.32;4.35;;;2.20;99.90;;;;;;5092029;28;20044;-80
2024/03/26 05:18:45;;;;;;;10.93;5.57;;;2.20;99.90;;;;;;5074356;28;20070;-81
2024/03/26 05:21:31;;;;;;;67.63;21.58;;;2.30;99.90;;;;;;5086984;28;20048;-81
2024/03/26 05:24:18;;;;;;;54.78;18.92;;;2.40;99.90;;;;;;5083632;28;20044;-81
2024/03/26 05:27:05;;;;;;;20.77;8.20;;;2.50;99.90;;;;;;5086692;28;20073;-81
2024/03/26 05:29:51;;;;;;;22.08;10.93;;;2.60;97.20;;;;;;5109248;28;20071;-82
2024/03/26 05:32:38;;;;;;;8.85;5.35;;;2.50;79.60;;;;;;5091126;28;20070;-83
2024/03/26 05:35:24;;;;;;;18.67;6.47;;;2.60;42.80;;;;;;5091891;28;20050;-82
2024/03/26 05:38:10;;;;;;;9.63;4.30;;;2.60;6.30;;;;;;5093194;28;20040;-80
2024/03/26 05:40:57;;;;;;;8.10;4.45;;;2.70;1.00;;;;;;5078679;28;20050;-80
2024/03/26 05:43:43;;;;;;;6.78;4.53;;;2.70;1.00;;;;;;5090549;28;20138;-83
2024/03/26 05:46:33;;;;;;;9.85;5.65;;;2.80;1.00;;;;;;5090657;28;20040;-82
2024/03/26 05:49:19;;;;;;;9.18;5.78;;;2.90;1.00;;;;;;5091946;28;20040;-82
2024/03/26 05:52:06;;;;;;;12.45;5.60;;;3.00;1.00;;;;;;5076866;28;20508;-82
2024/03/26 05:54:52;;;;;;;9.43;5.53;;;3.10;1.00;;;;;;5091103;28;20039;-80
2024/03/26 05:57:39;;;;;;;7.18;4.38;;;3.20;1.00;;;;;;5084098;28;20347;-81
2024/03/26 06:00:25;;;;;;;8.90;4.60;;;3.30;1.00;;;;;;5099439;28;20036;-82
2024/03/26 06:03:12;;;;;;;8.13;4.53;;;3.30;1.00;;;;;;5091893;28;20044;-81
2024/03/26 06:05:59;;;;;;;9.63;4.85;;;3.40;1.00;;;;;;5098451;28;20051;-81
2024/03/26 06:08:45;;;;;;;11.20;5.82;;;3.50;1.00;;;;;;5077752;28;20048;-82
2024/03/26 06:11:31;;;;;;;12.95;6.32;;;3.60;1.00;;;;;;5085820;28;20285;-80
2024/03/26 06:14:18;;;;;;;9.82;4.72;;;3.70;1.00;;;;;;5090496;28;20048;-81
2024/03/26 06:17:13;;;;;;;6.78;3.83;;;3.70;1.00;;;;;;5159398;22;20045;-79
2024/03/26 06:20:04;;;;;;;8.07;3.67;;;3.60;1.00;;;;;;5036971;28;20052;-81
2024/03/26 06:22:52;;;;;;;7.82;3.97;;;3.70;99.90;;;;;;5036933;28;20041;-82
2024/03/26 06:25:39;;;;;;;8.63;5.05;;;3.70;99.90;;;;;;5023617;28;20045;-83
2024/03/26 06:28:26;;;;;;;6.90;5.20;;;3.80;99.90;;;;;;5003712;28;20111;-81
2024/03/26 06:31:12;;;;;;;9.88;4.65;;;3.70;99.90;;;;;;5017660;28;20045;-82
2024/03/26 06:33:58;;;;;;;9.98;4.82;;;3.40;99.90;;;;;;5022589;28;20042;-77
2024/03/26 06:36:46;;;;;;;7.88;4.93;;;3.30;99.90;;;;;;5016507;28;20454;-82
2024/03/26 06:39:32;;;;;;;8.73;4.88;;;3.30;1.00;;;;;;4994974;28;20395;-82
2024/03/26 06:42:19;;;;;;;6.20;4.60;;;3.30;1.00;;;;;;5019819;28;20071;-81
2024/03/26 06:45:07;;;;;;;9.73;5.15;;;3.50;1.00;;;;;;5015257;28;20046;-82
2024/03/26 06:47:54;;;;;;;9.95;4.90;;;3.70;1.00;;;;;;5015264;28;20064;-81
2024/03/26 06:50:41;;;;;;;7.90;4.80;;;3.90;1.00;;;;;;5016232;28;20054;-81
2024/03/26 06:53:30;;;;;;;6.57;4.25;;;4.10;1.00;;;;;;5016704;28;20488;-82
2024/03/26 06:56:16;;;;;;;7.65;3.92;;;4.30;1.00;;;;;;5016866;28;20467;-83
2024/03/26 06:59:02;;;;;;;7.97;4.90;;;4.50;99.90;;;;;;5015697;28;20580;-80
2024/03/26 07:01:49;;;;;;;8.90;4.88;;;4.50;99.90;;;;;;5016364;28;20052;-79
2024/03/26 07:04:40;;;;;;;11.52;5.03;;;4.50;99.90;;;;;;5005075;28;20042;-81
2024/03/26 07:07:27;;;;;;;9.50;5.03;;;4.60;99.90;;;;;;5025596;28;20105;-81
2024/03/26 07:10:16;;;;;;;11.35;5.20;;;4.70;99.90;;;;;;5022925;28;20045;-78
2024/03/26 07:13:02;;;;;;;13.73;4.97;;;5.00;99.90;;;;;;5014665;28;20051;-82
2024/03/26 07:15:49;;;;;;;7.50;5.45;;;5.20;99.90;;;;;;5028460;28;20056;-80
2024/03/26 07:18:36;;;;;;;15.38;6.25;;;5.30;99.90;;;;;;5041119;28;20034;-81
2024/03/26 07:21:24;;;;;;;10.05;5.68;;;5.30;99.90;;;;;;5015865;28;20041;-78
2024/03/26 07:24:12;;;;;;;10.30;5.20;;;5.40;99.90;;;;;;5040633;28;20046;-81
2024/03/26 07:26:59;;;;;;;9.23;4.63;;;5.60;99.90;;;;;;5021823;28;20042;-79
2024/03/26 07:29:47;;;;;;;9.60;5.78;;;5.90;99.90;;;;;;5015068;28;20089;-82
2024/03/26 07:32:36;;;;;;;17.35;6.10;;;5.90;99.90;;;;;;5002815;28;20053;-81
2024/03/26 07:35:22;;;;;;;9.02;5.60;;;5.70;99.90;;;;;;5016217;28;20799;-81
2024/03/26 07:38:09;;;;;;;10.00;4.70;;;5.70;99.90;;;;;;5015398;28;20054;-83
2024/03/26 07:40:55;;;;;;;11.90;5.25;;;5.80;99.90;;;;;;5015020;28;20049;-80
2024/03/26 07:43:42;;;;;;;13.38;5.15;;;6.00;99.90;;;;;;5013708;28;20053;-83
2024/03/26 07:46:34;;;;;;;13.35;5.95;;;6.10;99.90;;;;;;5001975;28;20045;-84
2024/03/26 07:49:25;;;;;;;7.90;4.90;;;6.20;99.90;;;;;;5016540;28;20049;-83
2024/03/26 07:52:12;;;;;;;11.48;5.45;;;6.30;99.90;;;;;;5002488;28;20045;-81
2024/03/26 07:54:59;;;;;;;7.18;4.65;;;6.20;99.90;;;;;;5014462;28;20116;-83
2024/03/26 07:57:45;;;;;;;8.90;4.95;;;6.20;99.90;;;;;;5011781;28;20052;-81
2024/03/26 08:00:33;;;;;;;7.07;4.10;;;6.30;99.90;;;;;;5009909;28;20079;-82
2024/03/26 08:03:19;;;;;;;6.03;3.88;;;6.40;99.90;;;;;;5022873;28;20585;-82
2024/03/26 08:06:06;;;;;;;5.40;3.53;;;6.40;99.90;;;;;;5015692;28;20048;-80
2024/03/26 08:08:53;;;;;;;8.57;3.85;;;6.50;99.90;;;;;;5019823;28;20413;-83
2024/03/26 08:11:42;;;;;;;10.25;3.90;;;6.70;99.90;;;;;;5014588;28;20113;-85
2024/03/26 08:14:29;;;;;;;7.40;3.50;;;6.90;99.90;;;;;;5014442;28;20038;-83
2024/03/26 08:17:22;;;;;;;4.90;2.50;;;7.20;99.90;;;;;;5014648;28;20048;-83
2024/03/26 08:20:14;;;;;;;4.68;2.75;;;7.30;82.00;;;;;;5015359;28;20095;-83
2024/03/26 08:23:04;;;;;;;4.88;2.83;;;7.50;63.40;;;;;;5000833;28;20051;-84
2024/03/26 08:25:52;;;;;;;7.88;2.85;;;7.60;55.70;;;;;;5014830;28;20049;-82
2024/03/26 08:28:38;;;;;;;8.80;4.00;;;8.00;49.60;;;;;;5014256;28;20076;-82
2024/03/26 08:31:31;;;;;;;11.48;3.50;;;8.10;39.70;;;;;;5014140;28;20115;-83
2024/03/26 08:34:19;;;;;;;7.80;3.30;;;8.50;33.80;;;;;;5011763;28;20049;-82
2024/03/26 08:37:09;;;;;;;6.97;3.47;;;9.20;21.00;;;;;;5011473;28;20059;-80
2024/03/26 08:39:56;;;;;;;7.28;2.92;;;9.80;12.70;;;;;;5010711;28;20096;-84
2024/03/26 08:42:44;;;;;;;5.03;3.13;;;10.20;1.00;;;;;;5021153;28;20037;-79
2024/03/26 08:45:31;;;;;;;6.38;3.08;;;10.40;1.00;;;;;;5010413;28;20041;-83
2024/03/26 08:48:19;;;;;;;6.10;2.70;;;10.30;1.00;;;;;;5020837;28;20063;-84
2024/03/26 08:51:05;;;;;;;6.70;2.70;;;10.50;1.00;;;;;;5004978;28;20373;-84
2024/03/26 08:53:52;;;;;;;4.30;2.55;;;11.00;1.00;;;;;;5012151;28;20053;-84
2024/03/26 08:56:38;;;;;;;4.38;2.53;;;12.00;1.00;;;;;;4974918;28;20053;-82
2024/03/26 08:59:30;;;;;;;7.38;2.83;;;12.90;1.00;;;;;;5030741;28;20108;-80
2024/03/26 09:02:16;;;;;;;5.50;2.65;;;13.80;1.00;;;;;;5014895;28;20045;-84
2024/03/26 09:05:04;;;;;;;6.85;2.17;;;14.80;1.00;;;;;;5018756;28;20049;-83
2024/03/26 09:07:50;;;;;;;6.32;2.58;;;16.20;1.00;;;;;;5010200;28;20433;-83
2024/03/26 09:10:37;;;;;;;5.00;2.30;;;15.90;1.00;;;;;;5011963;28;20057;-83
2024/03/26 09:13:24;;;;;;;8.65;2.40;;;16.00;1.00;;;;;;5006037;28;20046;-82
2024/03/26 09:16:10;;;;;;;5.30;2.30;;;17.00;1.00;;;;;;5011870;28;20045;-81
2024/03/26 09:18:57;;;;;;;7.22;2.63;;;17.60;1.00;;;;;;5016688;28;20072;-83
2024/03/26 09:21:43;;;;;;;4.53;1.98;;;18.60;1.00;;;;;;5023213;28;20099;-83
2024/03/26 09:24:30;;;;;;;3.90;2.65;;;18.40;1.00;;;;;;5012122;28;20060;-82
2024/03/26 09:27:16;;;;;;;6.07;2.13;;;16.40;1.00;;;;;;5014489;28;20063;-81
2024/03/26 09:30:03;;;;;;;4.47;1.98;;;15.80;1.00;;;;;;5025831;28;20082;-82
2024/03/26 09:32:50;;;;;;;5.75;2.33;;;15.50;1.00;;;;;;5015465;28;20502;-81
2024/03/26 09:35:37;;;;;;;2.80;1.75;;;16.20;1.00;;;;;;5019164;28;20041;-82
2024/03/26 09:38:23;;;;;;;3.95;2.10;;;17.00;1.00;;;;;;5017326;28;20494;-81
2024/03/26 09:41:11;;;;;;;2.58;1.55;;;18.00;1.00;;;;;;5016484;28;20392;-82
2024/03/26 09:43:58;;;;;;;2.65;1.15;;;18.70;1.00;;;;;;5015706;28;20410;-82
2024/03/26 09:46:47;;;;;;;2.60;1.33;;;18.90;1.00;;;;;;5016174;28;20041;-81
2024/03/26 09:49:34;;;;;;;2.55;1.30;;;19.30;1.00;;;;;;5017286;28;20048;-83
2024/03/26 09:52:21;;;;;;;1.73;1.10;;;19.40;1.00;;;;;;5002824;28;20041;-82
2024/03/26 09:55:09;;;;;;;5.45;1.70;;;19.50;1.00;;;;;;5015397;28;20067;-83
2024/03/26 09:57:57;;;;;;;1.95;1.33;;;18.80;1.00;;;;;;5016572;28;20042;-81
2024/03/26 10:00:49;;;;;;;5.78;1.58;;;17.80;1.00;;;;;;5022147;28;20120;-81
2024/03/26 10:03:37;;;;;;;2.97;1.40;;;17.20;1.00;;;;;;5003571;28;20049;-83
2024/03/26 10:06:26;;;;;;;3.25;1.20;;;17.50;1.00;;;;;;5020516;28;20045;-82
2024/03/26 10:09:13;;;;;;;4.53;1.13;;;18.50;1.00;;;;;;5025428;28;20041;-82
2024/03/26 10:12:12;;;;;;;2.70;1.27;;;18.70;1.00;;;;;;5018981;28;20076;-82
2024/03/26 10:15:00;;;;;;;3.15;1.40;;;20.00;1.00;;;;;;5003278;28;20053;-83
2024/03/26 10:17:46;;;;;;;1.75;1.15;;;21.00;1.00;;;;;;5021261;28;20133;-83
2024/03/26 10:20:33;;;;;;;2.67;0.90;;;22.20;1.00;;;;;;5013260;28;20054;-83
2024/03/26 10:23:19;;;;;;;2.67;1.08;;;22.80;1.00;;;;;;5016636;28;20045;-82
2024/03/26 10:26:07;;;;;;;3.83;1.35;;;23.30;1.00;;;;;;5015656;28;20052;-81
2024/03/26 10:28:53;;;;;;;2.05;0.98;;;23.30;1.00;;;;;;5015789;28;20071;-82
2024/03/26 10:31:41;;;;;;;4.63;1.10;;;23.00;1.00;;;;;;5001823;28;20103;-84
2024/03/26 10:34:32;;;;;;;2.65;1.15;;;23.60;1.00;;;;;;5015626;28;20156;-84
2024/03/26 10:37:22;;;;;;;2.95;1.05;;;23.40;1.00;;;;;;5014088;28;20091;-84
2024/03/26 10:40:25;;;;;;;2.60;1.35;;;22.50;1.00;;;;;;5014480;28;20068;-80
2024/03/26 10:43:12;;;;;;;2.75;1.10;;;22.80;1.00;;;;;;5013345;28;20041;-80
2024/03/26 10:46:00;;;;;;;2.05;1.10;;;22.50;1.00;;;;;;5019021;28;20041;-80
2024/03/26 10:48:52;;;;;;;2.00;0.77;;;21.90;1.00;;;;;;5024158;28;20109;-82
2024/03/26 10:51:40;;;;;;;5.18;1.25;;;22.00;1.00;;;;;;5011390;28;20501;-84
2024/03/26 10:54:28;;;;;;;3.78;0.90;;;22.50;1.00;;;;;;5024987;28;20067;-80
2024/03/26 10:57:16;;;;;;;2.67;1.17;;;23.40;1.00;;;;;;5026220;28;20048;-83
2024/03/26 11:00:12;;;;;;;3.35;0.90;;;23.30;1.00;;;;;;5019314;28;20061;-83
2024/03/26 11:03:01;;;;;;;5.72;2.55;;;23.50;1.00;;;;;;5003886;28;20055;-82
2024/03/26 11:05:48;;;;;;;2.03;0.98;;;23.70;1.00;;;;;;5016677;28;20174;-82
2024/03/26 11:08:40;;;;;;;2.72;1.05;;;24.10;1.00;;;;;;5016948;28;20049;-80
2024/03/26 11:11:33;;;;;;;2.35;1.17;;;24.20;1.00;;;;;;5017246;28;20034;-80
2024/03/26 11:14:22;;;;;;;1.65;0.85;;;24.40;1.00;;;;;;5031510;28;20034;-78
2024/03/26 11:17:11;;;;;;;3.03;1.13;;;24.60;1.00;;;;;;5021714;28;20045;-79
2024/03/26 11:20:17;;;;;;;3.40;0.90;;;24.00;1.00;;;;;;5007872;28;20067;-83
2024/03/26 11:23:09;;;;;;;3.63;1.02;;;23.70;1.00;;;;;;5018399;28;20049;-84
2024/03/26 11:25:55;;;;;;;2.05;0.88;;;23.90;1.00;;;;;;5017940;28;20072;-82
2024/03/26 11:28:43;;;;;;;2.55;1.20;;;24.00;1.00;;;;;;5014917;28;20425;-84
2024/03/26 11:31:37;;;;;;;2.05;0.80;;;23.70;1.00;;;;;;5019793;28;20041;-83
2024/03/26 11:34:24;;;;;;;2.65;0.75;;;24.20;1.00;;;;;;5020594;28;20496;-84
2024/03/26 11:37:12;;;;;;;2.63;1.23;;;24.60;1.00;;;;;;5018942;28;20128;-82
2024/03/26 11:39:59;;;;;;;1.58;0.90;;;24.50;1.00;;;;;;5030950;28;20060;-84
2024/03/26 11:42:47;;;;;;;3.70;0.98;;;24.30;1.00;;;;;;5007565;28;20467;-83
2024/03/26 11:45:35;;;;;;;5.25;1.35;;;24.60;1.00;;;;;;5021854;28;20056;-84
2024/03/26 11:48:21;;;;;;;3.25;0.80;;;24.50;1.00;;;;;;5018297;28;20046;-84
2024/03/26 11:51:09;;;;;;;3.15;1.00;;;24.50;1.00;;;;;;5019141;28;20052;-80
2024/03/26 11:53:57;;;;;;;2.20;0.85;;;24.10;1.00;;;;;;5030617;28;20091;-85
2024/03/26 11:56:45;;;;;;;3.10;0.90;;;24.40;1.00;;;;;;4992730;28;20049;-84
2024/03/26 11:59:32;;;;;;;6.00;1.50;;;23.60;1.00;;;;;;5016804;28;20060;-83
2024/03/26 12:02:19;;;;;;;2.45;1.02;;;23.20;1.00;;;;;;5018699;28;20474;-81
2024/03/26 12:05:05;;;;;;;4.53;1.25;;;23.30;1.00;;;;;;5013573;28;20052;-79
2024/03/26 12:07:58;;;;;;;7.60;1.50;;;24.00;1.00;;;;;;5015396;28;20051;-82
2024/03/26 12:11:02;;;;;;;1.90;1.00;;;24.00;1.00;;;;;;5018497;28;20041;-83
2024/03/26 12:13:50;;;;;;;1.58;0.98;;;24.40;1.00;;;;;;5014607;28;20422;-81
2024/03/26 12:16:38;;;;;;;4.38;1.40;;;23.80;1.00;;;;;;5013069;28;20042;-82
2024/03/26 12:19:29;;;;;;;3.42;1.40;;;23.20;1.00;;;;;;5013239;28;20191;-80
2024/03/26 12:22:18;;;;;;;2.40;1.30;;;23.10;1.00;;;;;;5013519;28;20099;-83
2024/03/26 12:25:08;;;;;;;5.18;1.52;;;23.90;1.00;;;;;;5016263;28;20042;-80
2024/03/26 12:27:55;;;;;;;5.15;1.67;;;23.20;1.00;;;;;;5013201;28;20118;-81
2024/03/26 12:30:46;;;;;;;4.00;1.60;;;23.70;1.00;;;;;;5013942;28;20045;-80
2024/03/26 12:33:33;;;;;;;3.33;1.27;;;23.80;1.00;;;;;;5018158;28;20055;-84
2024/03/26 12:36:19;;;;;;;4.80;1.80;;;23.40;1.00;;;;;;5023483;28;20042;-82
2024/03/26 12:39:08;;;;;;;3.92;1.50;;;22.40;1.00;;;;;;5013967;28;20056;-83
2024/03/26 12:41:55;;;;;;;4.47;1.40;;;22.70;1.00;;;;;;5013650;28;20050;-81
2024/03/26 12:44:41;;;;;;;4.43;1.60;;;22.60;1.00;;;;;;5021301;28;20051;-83
2024/03/26 12:47:28;;;;;;;2.00;1.65;;;22.60;1.00;;;;;;5017413;28;20041;-80
2024/03/26 12:50:16;;;;;;;3.80;1.70;;;22.70;1.00;;;;;;5016819;28;20037;-82
2024/03/26 12:53:03;;;;;;;3.90;1.55;;;22.50;1.00;;;;;;5017096;28;20045;-83
2024/03/26 12:55:50;;;;;;;2.92;1.67;;;22.80;1.00;;;;;;5006446;28;20046;-80
2024/03/26 12:58:41;;;;;;;4.78;1.40;;;22.40;1.00;;;;;;5018720;28;20038;-83
2024/03/26 13:01:28;;;;;;;4.72;1.98;;;22.00;1.00;;;;;;4991344;28;20123;-82
2024/03/26 13:04:17;;;;;;;6.13;1.80;;;21.10;1.00;;;;;;5005874;28;20049;-80
2024/03/26 13:07:05;;;;;;;3.53;1.67;;;20.30;1.00;;;;;;5024833;28;20049;-80
2024/03/26 13:09:52;;;;;;;6.47;2.03;;;19.50;1.00;;;;;;5004340;28;20401;-81
2024/03/26 13:12:38;;;;;;;6.38;2.08;;;18.70;1.00;;;;;;5019525;28;20344;-80
2024/03/26 13:15:25;;;;;;;5.93;1.80;;;18.40;1.00;;;;;;5027570;28;20041;-81
2024/03/26 13:18:13;;;;;;;10.25;2.22;;;18.10;1.00;;;;;;5021577;28;20048;-82
2024/03/26 13:20:59;;;;;;;5.07;1.75;;;18.10;1.00;;;;;;5015496;28;20045;-81
2024/03/26 13:23:46;;;;;;;5.72;2.22;;;17.90;1.00;;;;;;5017859;28;20053;-83
2024/03/26 13:26:33;;;;;;;4.32;1.80;;;18.50;1.00;;;;;;5017060;28;20072;-81
2024/03/26 13:29:22;;;;;;;5.25;2.05;;;19.00;1.00;;;;;;5003883;28;20049;-81
2024/03/26 13:32:08;;;;;;;2.20;1.50;;;19.70;1.00;;;;;;5017728;28;20051;-82
2024/03/26 13:34:57;;;;;;;3.13;1.63;;;21.00;1.00;;;;;;5015491;28;20045;-82
2024/03/26 13:37:45;;;;;;;3.83;2.00;;;22.00;1.00;;;;;;4996762;28;20198;-82
2024/03/26 13:40:32;;;;;;;3.85;1.58;;;22.80;1.00;;;;;;5016072;28;20046;-82
2024/03/26 13:43:19;;;;;;;4.43;1.45;;;23.00;1.00;;;;;;5015387;28;20053;-81
2024/03/26 13:46:07;;;;;;;3.42;1.65;;;23.60;1.00;;;;;;5014560;28;20045;-83
2024/03/26 13:48:53;;;;;;;3.40;1.42;;;23.90;1.00;;;;;;5015112;28;20064;-82
2024/03/26 13:51:43;;;;;;;4.22;1.58;;;23.30;1.00;;;;;;5023494;28;20441;-82
2024/03/26 13:54:48;;;;;;;2.50;1.35;;;23.50;1.00;;;;;;5024215;28;20137;-83
2024/03/26 13:57:34;;;;;;;2.72;1.23;;;23.00;1.00;;;;;;5014510;28;20875;-81
2024/03/26 14:00:22;;;;;;;2.88;1.73;;;23.40;1.00;;;;;;5017688;28;20095;-78
2024/03/26 14:03:09;;;;;;;4.72;1.70;;;24.70;1.00;;;;;;5022493;28;20195;-83
2024/03/26 14:05:57;;;;;;;5.45;1.52;;;25.30;1.00;;;;;;5008005;28;20068;-83
2024/03/26 14:08:44;;;;;;;3.67;1.73;;;25.00;1.00;;;;;;5015281;28;20045;-82
2024/03/26 14:11:33;;;;;;;6.40;1.48;;;23.70;1.00;;;;;;5000517;28;20436;-81
2024/03/26 14:14:22;;;;;;;10.13;1.42;;;23.60;1.00;;;;;;5015339;28;20041;-83
2024/03/26 14:17:08;;;;;;;4.95;1.67;;;24.40;1.00;;;;;;5002806;28;20422;-82
2024/03/26 14:19:58;;;;;;;2.63;1.27;;;24.00;1.00;;;;;;5015030;28;20037;-83
2024/03/26 14:22:46;;;;;;;3.70;1.70;;;24.60;1.00;;;;;;5002119;28;20059;-82
2024/03/26 14:25:33;;;;;;;5.85;1.45;;;24.20;1.00;;;;;;5014881;28;20049;-81
2024/03/26 14:28:22;;;;;;;6.18;1.45;;;23.60;1.00;;;;;;5001029;28;20119;-81
2024/03/26 14:31:08;;;;;;;3.60;1.10;;;23.70;1.00;;;;;;5015485;28;20457;-83
2024/03/26 14:33:55;;;;;;;6.07;1.45;;;24.10;1.00;;;;;;5017161;28;20092;-81
2024/03/26 14:36:42;;;;;;;4.35;1.30;;;23.70;1.00;;;;;;5025962;28;20071;-81
2024/03/26 14:39:30;;;;;;;4.70;1.40;;;24.00;1.00;;;;;;5025162;28;20119;-80
2024/03/26 14:42:22;;;;;;;3.80;1.25;;;23.70;1.00;;;;;;5040366;28;20086;-83
2024/03/26 14:45:11;;;;;;;7.57;1.20;;;24.00;1.00;;;;;;5012349;28;20053;-80